Tiempo atmosférico en la estación meteorológica de La Rambla, Córdoba (200 m.)



Fecha
DESCASC
Temp. máxima en grados centígrados (hora)
DESCASC
Temp. mínima en grados centígrados (hora)
DESCASC
Temp. media en grados centígrados
DESCASC
Racha de viento máxima en m/sg (hora)
DESCASC
Velocidad máxima media en intervalos de 10 minutos(hora)
DESCASC
Precipitaciones diarias en mm
DESCASC
Precipitaciones de 00:00 a 06:00 en mm
DESCASC
Precipitaciones de 06:00 a 12:00 en mm
DESCASC
Precipitaciones de 12:00 a 18:00 en mm
DESCASC
Precipitaciones de 18:00 a 24:00 en mm
DESCASC
24-09-2020 29.3 (15:20) 17 (05:50) 23.1 8.33 (15:40) 5.83 (17:20) 0 0 0 0 0
23-09-2020 28.9 (16:50) 15.3 (00:00) 22.1 11.11 (14:30) 6.94 (16:30) 0 0 0 0 0
22-09-2020 30.5 (16:50) 13.8 (00:00) 22.2 8.06 (18:50) 4.72 (18:30) 0 0 0 0 0
21-09-2020 29.5 (17:30) 16 (00:00) 22.8 5.83 (15:10) 2.78 (15:40) 0 0 0 0 0
20-09-2020 26.9 (17:10) 17.1 (00:00) 22 5.83 (15:50) 3.33 (17:50) 0 0 0 0 0
19-09-2020 23 (18:30) 17.5 (00:00) 20.3 7.5 (03:30) 5 (04:30) 11.8 0 11 0.8 0
18-09-2020 28.3 (14:10) 19.6 (00:00) 23.9 17.78 (17:50) 12.78 (18:00) 4 0 4 0 0
17-09-2020 32.8 (17:00) 19.8 (00:00) 26.3 16.11 (19:50) 10.28 (19:10) 0 0 0 0 0
16-09-2020 33.8 (17:20) 17.3 (00:00) 25.5 9.17 (17:20) 5.56 (17:20) 0 0 0 0 0
15-09-2020 33.4 (17:30) 17.6 (00:00) 25.5 8.33 (17:30) 4.17 (18:00) 0 0 0 0 0
14-09-2020 33.8 (17:10) 19.4 (00:00) 26.6 9.72 (16:00) 7.22 (16:00) 0 0 0 0 0
13-09-2020 36.3 (17:10) 20.5 (00:00) 28.4 9.72 (18:50) 5.83 (18:10) 0 0 0 0 0
12-09-2020 38 (16:30) 17.5 (00:00) 27.8 8.06 (11:30) 5.28 (11:30) 0 0 0 0 0
11-09-2020 35.8 (17:20) 16.9 (00:00) 26.3 5.83 (20:20) 3.89 (19:50) 0 0 0 0 0
10-09-2020 35.2 (16:40) 16.6 (00:00) 25.9 5.83 (16:40) 3.06 (16:40) 0 0 0 0 0
09-09-2020 33.6 (18:30) 17.8 (00:00) 25.7 6.94 (02:20) 4.17 (02:00) 0 0 0 0 0
08-09-2020 33.5 (15:50) 20 (00:00) 26.8 10 (17:00) 6.67 (20:00) 0 0 0 0 0
07-09-2020 37.2 (17:50) 18 (08:20) 27.6 6.39 (18:00) 4.44 (03:20) 0 0 0 0 0
06-09-2020 36.1 (17:00) 18.3 (00:00) 27.2 8.89 (01:50) 5.83 (02:00) 0 0 0 0 0
05-09-2020 36.1 (17:20) 18.1 (00:00) 27.1 6.67 (23:20) 4.17 (23:30) 0 0 0 0 0
04-09-2020 35.8 (17:00) 16.3 (00:00) 26 8.06 (19:50) 6.11 (20:30) 0 0 0 0 0
03-09-2020 35.8 (17:10) 16.5 (00:00) 26.1 8.33 (18:50) 6.39 (19:30) 0 0 0 0 0
02-09-2020 34.7 (17:20) 14.5 (00:00) 24.6 7.5 (20:20) 5.28 (20:20) 0 0 0 0 0
01-09-2020 32.3 (18:30) 15.3 (00:00) 23.8 7.5 (18:40) 4.17 (18:30) 0 0 0 0 0
31-08-2020 33.6 (17:00) 14 (00:00) 23.8 7.5 (20:10) 5.56 (19:00) 0 0 0 0 0
30-08-2020 32.2 (17:20) 18.3 (00:00) 25.3 10 (11:10) 6.67 (11:10) 0 0 0 0 0
29-08-2020 31.3 (18:10) 15.7 (00:00) 23.5 13.33 (16:50) 6.39 (19:30) 0 0 0 0 0
28-08-2020 36.7 (17:40) 19.3 (00:00) 28 12.78 (18:50) 7.78 (20:40) 0 0 0 0 0
27-08-2020 41.2 (17:20) 19.8 (00:00) 30.5 10.56 (18:30) 6.11 (17:40) 0 0 0 0 0
26-08-2020 40.7 (18:50) 21.1 (00:00) 30.9 6.39 (17:40) 3.89 (17:30) 0 0 0 0 0

Gráficas

Temp. máximas Temp. mínimas Temp. medias Precipitaciones Rachas de viento máximas Velocidades máximas media en intervalos de 10 minutos

Datos horarios

Fecha y hora oficial Temperatura (ºC) Velocidad del viento (km/h) Dirección del viento Racha (km/h) Dirección de racha Precipitación (mm) Presión (hPa) Tendencia (hPa) Humedad (%)
2020-09-24 23:00:00 23 0 Calma 8 Oeste 0 -- -- 64
2020-09-24 22:00:00 23.4 2 Oeste 6 Noroeste 0 -- -- 63
2020-09-24 21:00:00 24.1 3 Norte 10 Norte 0 -- -- 61
2020-09-24 20:00:00 24.9 11 Noroeste 19 Noroeste 0 -- -- 58
2020-09-24 19:00:00 25.9 16 Norte 25 Oeste 0 -- -- 54
2020-09-24 18:00:00 27.9 18 Oeste 30 Oeste 0 -- -- 47
2020-09-24 17:00:00 29.1 15 Oeste 30 Oeste 0 -- -- 43
2020-09-24 16:00:00 28.9 14 Oeste 30 Noroeste 0 -- -- 47
2020-09-24 15:00:00 29.1 14 Sudoeste 26 Sudoeste 0 -- -- 48
2020-09-24 14:00:00 28.4 13 Sudoeste 23 Sur 0 -- -- 53
2020-09-24 13:00:00 27.5 7 Sur 15 Sur 0 -- -- 58
2020-09-24 12:00:00 24.7 3 Oeste 9 Sudoeste 0 -- -- 67
2020-09-24 11:00:00 22.4 3 Norte 7 Nordeste 0 -- -- 78
2020-09-24 10:00:00 19.6 2 Nordeste 6 Este 0 -- -- 90
2020-09-24 09:00:00 18.4 2 Nordeste 4 Norte 0 -- -- 91
2020-09-24 08:00:00 17.7 0 Calma 5 Norte 0 -- -- 86
2020-09-24 07:00:00 17.7 2 Norte 4 Norte 0 -- -- 86
2020-09-24 06:00:00 17 3 Norte 6 Norte 0 -- -- 86
2020-09-24 05:00:00 17.2 2 Noroeste 6 Este 0 -- -- 84
2020-09-24 04:00:00 17.6 0 Calma 4 Este 0 -- -- 80
2020-09-24 03:00:00 18.8 0 Calma 6 Sudeste 0 -- -- 79
2020-09-24 02:00:00 20 0 Calma 9 Este 0 -- -- 77
2020-09-24 01:00:00 21 6 Sudoeste 15 Sudoeste 0 -- -- 73
2020-09-24 00:00:00 21.4 4 Sudoeste 10 Sur 0 -- -- 69
2020-09-23 23:00:00 22.3 6 Sur 11 Sudoeste 0 -- -- 64
2020-09-23 22:00:00 23 0 Calma 8 Sur 0 -- -- 61
2020-09-23 21:00:00 24.1 7 Sur 17 Sudoeste 0 -- -- 58
2020-09-23 20:00:00 25.8 13 Sudoeste 24 Sudoeste 0 -- -- 53
2020-09-23 19:00:00 27.5 21 Sudoeste 28 Sudoeste 0 -- -- 49
2020-09-23 18:00:00 28.4 17 Sudoeste 36 Sudoeste 0 -- -- 46
2020-09-23 17:00:00 28.7 20 Sudoeste 40 Sudoeste 0 -- -- 46
2020-09-23 16:00:00 27.9 17 Oeste 36 Sudoeste 0 -- -- 48
2020-09-23 15:00:00 27.3 20 Sudoeste 40 Sudoeste 0 -- -- 51
2020-09-23 14:00:00 26.8 20 Sudoeste 40 Sudoeste 0 -- -- 50
2020-09-23 13:00:00 25.9 20 Sudoeste 29 Sudoeste 0 -- -- 53
2020-09-23 12:00:00 24 17 Sudoeste 32 Sudoeste 0 -- -- 61
2020-09-23 11:00:00 22.5 9 Sur 15 Sur 0 -- -- 65
2020-09-23 10:00:00 19.1 2 Sudoeste 7 Norte 0 -- -- 74
2020-09-23 09:00:00 16.6 3 Norte 5 Norte 0 -- -- 84
2020-09-23 08:00:00 15.3 3 Este 4 Este 0 -- -- 81
2020-09-23 07:00:00 15.3 3 Nordeste 5 Este 0 -- -- 81
2020-09-23 06:00:00 15.8 0 Calma 4 Sudoeste 0 -- -- 81
2020-09-23 05:00:00 16.7 3 Este 5 Este 0 -- -- 79
2020-09-23 04:00:00 17.4 0 Calma 3 Sur 0 -- -- 77
2020-09-23 03:00:00 18.7 2 Sudoeste 15 Sur 0 -- -- 73
2020-09-23 02:00:00 19.5 10 Sur 19 Sur 0 -- -- 70
2020-09-23 01:00:00 20.3 12 Sur 23 Sur 0 -- -- 67
2020-09-23 00:00:00 21.1 13 Sur 20 Sudoeste 0 -- -- 65
2020-09-22 23:00:00 22.2 15 Sudoeste 23 Sudoeste 0 -- -- 61
2020-09-22 22:00:00 23.7 9 Sudoeste 19 Sudoeste 0 -- -- 57
2020-09-22 21:00:00 24.6 5 Sudoeste 11 Oeste 0 -- -- 49
2020-09-22 20:00:00 26.8 8 Sudoeste 23 Sudoeste 0 -- -- 41
2020-09-22 19:00:00 28.6 10 Oeste 29 Sudoeste 0 -- -- 37
2020-09-22 18:00:00 30.1 14 Sudoeste 23 Sudoeste 0 -- -- 35
2020-09-22 17:00:00 30.4 12 Oeste 23 Oeste 0 -- -- 35
2020-09-22 16:00:00 29.7 8 Sudoeste 20 Sur 0 -- -- 36
2020-09-22 15:00:00 29.3 6 Sudeste 14 Sudoeste 0 -- -- 37
2020-09-22 14:00:00 27.3 4 Noroeste 10 Nordeste 0 -- -- 36
2020-09-22 13:00:00 26.2 6 Nordeste 12 Nordeste 0 -- -- 44
2020-09-22 12:00:00 23.9 5 Norte 10 Norte 0 -- -- 50
2020-09-22 11:00:00 22.1 5 Norte 10 Norte 0 -- -- 57
2020-09-22 10:00:00 18.9 3 Norte 8 Nordeste 0 -- -- 79
2020-09-22 09:00:00 14.5 3 Norte 5 Norte 0 -- -- 93
2020-09-22 08:00:00 14.2 0 Calma 7 Norte 0 -- -- 89
2020-09-22 07:00:00 14.5 0 Calma 4 Norte 0 -- -- 90
2020-09-22 06:00:00 15 0 Calma 5 Norte 0 -- -- 88
2020-09-22 05:00:00 15.6 3 Norte 6 Norte 0 -- -- 86
2020-09-22 04:00:00 16.2 4 Norte 6 Norte 0 -- -- 86
2020-09-22 03:00:00 16.9 2 Norte 5 Norte 0 -- -- 83
2020-09-22 02:00:00 17.7 0 Calma 5 Este 0 -- -- 81
2020-09-22 01:00:00 18.5 0 Calma 4 Norte 0 -- -- 79
2020-09-22 00:00:00 19.5 0 Calma 6 Norte 0 -- -- 75
2020-09-21 23:00:00 20.7 4 Norte 7 Norte 0 -- -- 71
2020-09-21 22:00:00 21.9 0 Calma 3 Este 0 -- -- 67
2020-09-21 21:00:00 24.2 3 Este 5 Oeste 0 -- -- 58
2020-09-21 20:00:00 27 4 Oeste 14 Sudoeste 0 -- -- 45
2020-09-21 19:00:00 28.4 5 Oeste 17 Oeste 0 -- -- 41
2020-09-21 18:00:00 29.5 8 Sudoeste 17 Oeste 0 -- -- 41
2020-09-21 17:00:00 29.1 9 Oeste 18 Oeste 0 -- -- 42
2020-09-21 16:00:00 27.9 5 Noroeste 21 Oeste 0 -- -- 44
2020-09-21 15:00:00 26.9 4 Noroeste 14 Norte 0 -- -- 49
2020-09-21 14:00:00 25.5 7 Nordeste 14 Nordeste 0 -- -- 58
2020-09-21 13:00:00 24.1 9 Norte 16 Norte 0 -- -- 64
2020-09-21 12:00:00 22.3 4 Este 13 Norte 0 -- -- 70
2020-09-21 11:00:00 19.8 4 Nordeste 7 Norte 0 -- -- 86
2020-09-21 10:00:00 18 0 Calma 5 Norte 0 -- -- 94
2020-09-21 09:00:00 16.6 0 Calma 5 Nordeste 0 -- -- 95
2020-09-21 08:00:00 16.1 0 Calma 4 Norte 0 -- -- 93
2020-09-21 07:00:00 16.3 0 Calma 2 Norte 0 -- -- 93
2020-09-21 06:00:00 16.6 0 Calma 4 Norte 0 -- -- 92
2020-09-21 05:00:00 17 0 Calma 2 Norte 0 -- -- 92
2020-09-21 04:00:00 17.1 0 Calma 4 Este 0 -- -- 90
2020-09-21 03:00:00 17.5 0 Calma 3 Este 0 -- -- 89
2020-09-21 02:00:00 18 0 Calma 3 Este 0 -- -- 87
2020-09-21 01:00:00 18.4 0 Calma 4 Este 0 -- -- 86
2020-09-21 00:00:00 19 0 Calma 3 Norte 0 -- -- 84
2020-09-20 23:00:00 19.6 0 Calma 4 Sudeste 0 -- -- 82
2020-09-20 22:00:00 20.8 0 Calma -- -- 0 -- -- 76
2020-09-20 21:00:00 22.3 0 Calma 9 Sur 0 -- -- 70
2020-09-20 20:00:00 24.3 5 Sur 16 Sudoeste 0 -- -- 62
2020-09-20 19:00:00 25.8 10 Sudoeste 18 Sudoeste 0 -- -- 54
2020-09-20 18:00:00 26.7 12 Sudoeste 18 Sudoeste 0 -- -- 51
2020-09-20 17:00:00 26.5 8 Oeste 19 Oeste 0 -- -- 53
2020-09-20 16:00:00 26 8 Oeste 21 Oeste 0 -- -- 55
2020-09-20 15:00:00 24.9 7 Noroeste 14 Oeste 0 -- -- 61
2020-09-20 14:00:00 23.8 5 Sudoeste 12 Oeste 0 -- -- 67
2020-09-20 13:00:00 22.5 2 Norte 10 Noroeste 0 -- -- 72
2020-09-20 12:00:00 20.7 5 Norte 10 Noroeste 0 -- -- 78
2020-09-20 11:00:00 20.3 3 Sur 6 Sudoeste 0 -- -- 81
2020-09-20 10:00:00 18.4 0 Calma 3 Sudoeste 0 -- -- 90
2020-09-20 09:00:00 17.8 4 Sur 5 Sur 0 -- -- 92
2020-09-20 08:00:00 17.8 2 Sur 3 Sur 0 -- -- 93
2020-09-20 07:00:00 17.8 0 Calma 3 Sudoeste 0 -- -- 93
2020-09-20 06:00:00 17.7 0 Calma 5 Sudoeste 0 -- -- 93
2020-09-20 05:00:00 17.6 3 Sudoeste 9 Sudoeste 0 -- -- 94
2020-09-20 04:00:00 17.3 4 Sudoeste 7 Sur 0 -- -- 95
2020-09-20 03:00:00 17.2 4 Sur 12 Sur 0 -- -- 94
2020-09-20 02:00:00 17.4 8 Sur 12 Sur 0 -- -- 94
2020-09-20 01:00:00 17.5 6 Sudeste 13 Sur 0 -- -- 91
2020-09-20 00:00:00 17.8 7 Sur 12 Sur 0 -- -- 91
2020-09-19 23:00:00 18.4 10 Sur 15 Sudoeste 0 -- -- 90
2020-09-19 22:00:00 19.3 0 Calma 5 Sudeste 0 -- -- 90
2020-09-19 21:00:00 20.3 3 Este 12 Sudoeste 0 -- -- 86
2020-09-19 20:00:00 21.7 10 Sudoeste 16 Sudoeste 0 -- -- 82
2020-09-19 19:00:00 22.7 12 Sudoeste 21 Sudoeste 0 -- -- 78
2020-09-19 18:00:00 22.4 14 Sudoeste 21 Sur 0 -- -- 83
2020-09-19 17:00:00 22.2 15 Sudoeste 21 Sudoeste 0 -- -- 82
2020-09-19 16:00:00 21 11 Sudoeste 16 Sudoeste 0 -- -- 89
2020-09-19 15:00:00 19.2 2 Sudeste 22 Noroeste 0.6 -- -- 95
2020-09-19 14:00:00 20 6 Sudoeste 18 Sudoeste 0 -- -- 91
2020-09-19 13:00:00 19.7 6 Sudoeste 10 Sudoeste 0.2 -- -- 90
2020-09-19 12:00:00 19.7 2 Oeste 9 Sudoeste 0.2 -- -- 88
2020-09-19 11:00:00 19 5 Sudoeste 10 Sudoeste 0 -- -- 92
2020-09-19 10:00:00 18.1 2 Sur 8 Sur 1.8 -- -- 96
2020-09-19 09:00:00 17.8 3 Sur 16 Sudoeste 1.2 -- -- 95
2020-09-19 08:00:00 17.6 7 Sudoeste 19 Oeste 3.4 -- -- 95
2020-09-19 07:00:00 17.7 10 Sudoeste 18 Sudoeste 4.4 -- -- 94
2020-09-19 06:00:00 18.3 3 Sur 13 Sur 0 -- -- 92
2020-09-19 05:00:00 18.9 10 Sur 27 Sudoeste 0 -- -- 85
2020-09-19 04:00:00 19.3 13 Sudoeste 27 Sur 0 -- -- 79
2020-09-19 03:00:00 19.1 13 Sur 21 Sur 0 -- -- 78
2020-09-19 02:00:00 19 10 Sur 18 Sur 0 -- -- 79
2020-09-19 01:00:00 19.2 11 Sur 17 Sur 0 -- -- 78
2020-09-19 00:00:00 20 14 Sudoeste 28 Sudoeste 0 -- -- 76
2020-09-18 23:00:00 20.9 21 Sudoeste 35 Sudoeste 0 -- -- 74
2020-09-18 22:00:00 21.3 22 Sudoeste 49 Sudoeste 0 -- -- 71
2020-09-18 21:00:00 22.2 31 Sudoeste 45 Sudoeste 0 -- -- 68
2020-09-18 20:00:00 23.4 27 Sudoeste 48 Sudoeste 0 -- -- 65
2020-09-18 19:00:00 25.2 33 Sudoeste 61 Sudoeste 0 -- -- 54
2020-09-18 18:00:00 26.7 46 Sudoeste 64 Sudoeste 0 -- -- 51
2020-09-18 17:00:00 27.4 41 Sudoeste 60 Sudoeste 0 -- -- 50
2020-09-18 16:00:00 26.4 29 Sur 52 Sur 0 -- -- 57
2020-09-18 15:00:00 28.2 36 Sur 57 Sur 0 -- -- 52
2020-09-18 14:00:00 27.9 37 Sur 59 Sur 0 -- -- 54
2020-09-18 13:00:00 26.7 33 Sur 51 Sur 0 -- -- 60
2020-09-18 12:00:00 23.7 23 Sur 36 Sur 0 -- -- 72
2020-09-18 11:00:00 22.8 13 Sudoeste 23 Sudoeste 0.2 -- -- 81
2020-09-18 10:00:00 20.8 5 Sur 28 Sudeste 3.8 -- -- 93
2020-09-18 09:00:00 22 7 Sur 13 Sur 0 -- -- 69
2020-09-18 08:00:00 21.6 6 Sudoeste 21 Sur 0 -- -- 70
2020-09-18 07:00:00 21.9 18 Sur 36 Sudoeste 0 -- -- 69
2020-09-18 06:00:00 22.4 22 Sur 37 Sudoeste 0 -- -- 66
2020-09-18 05:00:00 22.6 22 Sur 46 Sur 0 -- -- 64
2020-09-18 04:00:00 23.3 29 Sur 45 Sur 0 -- -- 63
2020-09-18 03:00:00 23.9 27 Sur 54 Sur 0 -- -- 59
2020-09-18 02:00:00 24.2 32 Sur 50 Sur 0 -- -- 57
2020-09-18 01:00:00 24.4 21 Sur 39 Sur 0 -- -- 55
2020-09-18 00:00:00 24.6 16 Sur 36 Sudeste 0 -- -- 55
2020-09-17 23:00:00 25.3 22 Sur 42 Sur 0 -- -- 55
2020-09-17 22:00:00 26 24 Sur 49 Sur 0 -- -- 52
2020-09-17 21:00:00 27 32 Sur 57 Sur 0 -- -- 51
2020-09-17 20:00:00 28.2 36 Sur 58 Sur 0 -- -- 49
2020-09-17 19:00:00 29.9 28 Sur 52 Sur 0 -- -- 45
2020-09-17 18:00:00 30.9 32 Sur 46 Sur 0 -- -- 43
2020-09-17 17:00:00 32.8 30 Sur 41 Sur 0 -- -- 37
2020-09-17 16:00:00 32.1 21 Sur 46 Sur 0 -- -- 40
2020-09-17 15:00:00 32.1 23 Sur 47 Sur 0 -- -- 41
2020-09-17 14:00:00 32 32 Sur 46 Sur 0 -- -- 43
2020-09-17 13:00:00 29.4 27 Sur 44 Sur 0 -- -- 51
2020-09-17 12:00:00 28 26 Sur 39 Sur 0 -- -- 55
2020-09-17 11:00:00 27.3 23 Sur 38 Sudeste 0 -- -- 57
2020-09-17 10:00:00 25.3 11 Sur 26 Sudeste 0 -- -- 63
2020-09-17 09:00:00 23.2 17 Sur 28 Sudeste 0 -- -- 70
2020-09-17 08:00:00 20 0 Calma 6 Norte 0 -- -- 83
2020-09-17 07:00:00 19.8 3 Norte 6 Norte 0 -- -- 84
2020-09-17 06:00:00 20.4 4 Sudeste 6 Sudeste 0 -- -- 82
2020-09-17 05:00:00 21.3 4 Sur 14 Sudoeste 0 -- -- 78
2020-09-17 04:00:00 21.9 4 Sur 8 Sudoeste 0 -- -- 76
2020-09-17 03:00:00 22.4 0 Calma 8 Sur 0 -- -- 80
2020-09-17 02:00:00 22.7 0 Calma 5 Norte 0 -- -- 81
2020-09-17 01:00:00 23 3 Norte 11 Nordeste 0 -- -- 81
2020-09-17 00:00:00 23 4 Este 9 Sudeste 0 -- -- 84
2020-09-16 23:00:00 24.6 2 Sudoeste 10 Sudoeste 0 -- -- 72
2020-09-16 22:00:00 26.5 6 Sudoeste 22 Sudoeste 0 -- -- 54
2020-09-16 21:00:00 27.9 10 Sudoeste 18 Noroeste 0 -- -- 47
2020-09-16 20:00:00 29.6 6 Sudoeste 26 Sudoeste 0 -- -- 43
2020-09-16 19:00:00 31.1 18 Sur 27 Sudoeste 0 -- -- 33
2020-09-16 18:00:00 32.5 19 Sur 33 Sur 0 -- -- 33
2020-09-16 17:00:00 33.4 13 Sur 26 Sur 0 -- -- 34
2020-09-16 16:00:00 32.5 8 Sur 21 Sur 0 -- -- 37
2020-09-16 15:00:00 31.9 9 Sur 18 Sur 0 -- -- 37
2020-09-16 14:00:00 30.4 8 Sur 20 Sur 0 -- -- 39
2020-09-16 13:00:00 28.9 3 Oeste 13 Este 0 -- -- 45
2020-09-16 12:00:00 27.8 4 Nordeste 15 Nordeste 0 -- -- 50
2020-09-16 11:00:00 25.2 12 Nordeste 19 Nordeste 0 -- -- 56
2020-09-16 10:00:00 23.4 7 Nordeste 13 Nordeste 0 -- -- 60
2020-09-16 09:00:00 18.6 4 Norte 9 Norte 0 -- -- 71
2020-09-16 08:00:00 17.4 4 Norte 6 Norte 0 -- -- 71
2020-09-16 07:00:00 17.9 4 Norte 6 Norte 0 -- -- 69
2020-09-16 06:00:00 18.4 0 Calma 4 Sudeste 0 -- -- 68
2020-09-16 05:00:00 18.9 0 Calma 4 Sudeste 0 -- -- 67
2020-09-16 04:00:00 19.6 0 Calma 5 Norte 0 -- -- 61
2020-09-16 03:00:00 20.7 0 Calma 13 Sur 0 -- -- 61
2020-09-16 02:00:00 20.8 6 Sur 9 Sur 0 -- -- 57
2020-09-16 01:00:00 21.7 0 Calma 4 Sudeste 0 -- -- 55
2020-09-16 00:00:00 23.2 0 Calma 5 Sudoeste 0 -- -- 55
2020-09-15 23:00:00 25.2 4 Sudoeste 12 Sur 0 -- -- 54
2020-09-15 22:00:00 27.2 2 Norte 18 Noroeste 0 -- -- 49
2020-09-15 21:00:00 28.7 13 Noroeste 19 Oeste 0 -- -- 45
2020-09-15 20:00:00 30.9 6 Sudoeste 17 Sudoeste 0 -- -- 39
2020-09-15 19:00:00 32.2 10 Sudoeste 20 Sur 0 -- -- 36
2020-09-15 18:00:00 33.3 15 Sudoeste 30 Sudoeste 0 -- -- 35
2020-09-15 17:00:00 32.8 7 Sudoeste 23 Sudoeste 0 -- -- 41
2020-09-15 16:00:00 31.9 8 Sudoeste 25 Sudoeste 0 -- -- 43
2020-09-15 15:00:00 31.1 9 Sur 24 Sur 0 -- -- 46
2020-09-15 14:00:00 30 10 Sudoeste 18 Sudoeste 0 -- -- 48
2020-09-15 13:00:00 29.1 8 Sur 13 Este 0 -- -- 50
2020-09-15 12:00:00 27.4 6 Sudeste 15 Este 0 -- -- 56
2020-09-15 11:00:00 25.4 4 Norte 8 Norte 0 -- -- 64
2020-09-15 10:00:00 22.5 3 Norte 4 Noroeste 0 -- -- 75
2020-09-15 09:00:00 18.1 0 Calma 5 Norte 0 -- -- 82
2020-09-15 08:00:00 17.8 3 Norte 5 Norte 0 -- -- 84
2020-09-15 07:00:00 18 3 Nordeste 4 Nordeste 0 -- -- 81
2020-09-15 06:00:00 19.2 2 Norte 5 Norte 0 -- -- 82
2020-09-15 05:00:00 20.2 3 Sur 7 Sur 0 -- -- 82
2020-09-15 04:00:00 20.9 4 Sudeste 9 Sudoeste 0 -- -- 80
2020-09-15 03:00:00 21.3 4 Sudoeste 10 Sudoeste 0 -- -- 80
2020-09-15 02:00:00 22.4 9 Sudoeste 16 Sudoeste 0 -- -- 77
2020-09-15 01:00:00 23.6 12 Sudoeste 18 Sudoeste 0 -- -- 74
2020-09-15 00:00:00 24.7 12 Sudoeste 32 Sudoeste 0 -- -- 70
2020-09-14 23:00:00 26 24 Sudoeste 34 Sudoeste 0 -- -- 65
2020-09-14 22:00:00 27.1 17 Sudoeste 28 Sudoeste 0 -- -- 50
2020-09-14 21:00:00 27.9 19 Sur 27 Sudoeste 0 -- -- 43
2020-09-14 20:00:00 29.9 13 Sur 29 Sur 0 -- -- 38
2020-09-14 19:00:00 31.8 19 Sur 28 Sudoeste 0 -- -- 35
2020-09-14 18:00:00 33.1 21 Sur 33 Sur 0 -- -- 34
2020-09-14 17:00:00 33.5 19 Sudoeste 32 Sur 0 -- -- 35
2020-09-14 16:00:00 32 26 Sur 35 Sudoeste 0 -- -- 37
2020-09-14 15:00:00 32.1 19 Sudoeste 28 Sudoeste 0 -- -- 37
2020-09-14 14:00:00 32.8 16 Sudoeste 30 Sudoeste 0 -- -- 38
2020-09-14 13:00:00 31.4 14 Sur 24 Sur 0 -- -- 39
2020-09-14 12:00:00 28.7 9 Sur 20 Este 0 -- -- 43
2020-09-14 11:00:00 27 5 Sudeste 12 Sudoeste 0 -- -- 48
2020-09-14 10:00:00 24.3 3 Este 7 Nordeste 0 -- -- 53
2020-09-14 09:00:00 19.9 3 Norte 5 Norte 0 -- -- 59
2020-09-14 08:00:00 19.6 3 Este 5 Este 0 -- -- 58
2020-09-14 07:00:00 20.3 2 Nordeste 4 Este 0 -- -- 56
2020-09-14 06:00:00 20.5 4 Este 8 Norte 0 -- -- 57
2020-09-14 05:00:00 20.6 3 Nordeste 8 Norte 0 -- -- 58
2020-09-14 04:00:00 20.9 2 Norte 8 Nordeste 0 -- -- 59
2020-09-14 03:00:00 21.6 3 Nordeste 8 Norte 0 -- -- 56
2020-09-14 02:00:00 22.1 3 Sudeste 6 Norte 0 -- -- 55
2020-09-14 01:00:00 24.1 3 Sur 13 Sur 0 -- -- 53
2020-09-14 00:00:00 24.7 8 Sur 12 Sur 0 -- -- 51
2020-09-13 23:00:00 25.8 6 Sudoeste 18 Sudoeste 0 -- -- 48
2020-09-13 22:00:00 27.1 12 Sudoeste 27 Sudoeste 0 -- -- 45
2020-09-13 21:00:00 29 17 Sur 28 Sur 0 -- -- 40
2020-09-13 20:00:00 31.7 14 Sur 24 Sur 0 -- -- 35
2020-09-13 19:00:00 33.6 19 Sur 35 Sudoeste 0 -- -- 32
2020-09-13 18:00:00 35.4 19 Sudoeste 31 Sudoeste 0 -- -- 30
2020-09-13 17:00:00 36.2 9 Sudoeste 23 Sudoeste 0 -- -- 25
2020-09-13 16:00:00 35.2 10 Sur 28 Sur 0 -- -- 28
2020-09-13 15:00:00 34.1 11 Sur 24 Sudoeste 0 -- -- 30
2020-09-13 14:00:00 33.9 11 Sur 27 Sur 0 -- -- 29
2020-09-13 13:00:00 32.3 6 Sur 17 Sur 0 -- -- 32
2020-09-13 12:00:00 30 6 Sur 13 Sur 0 -- -- 36
2020-09-13 11:00:00 28.5 3 Sur 7 Sur 0 -- -- 37
2020-09-13 10:00:00 25.4 2 Nordeste 4 Norte 0 -- -- 42
2020-09-13 09:00:00 20.9 3 Este 5 Este 0 -- -- 50
2020-09-13 08:00:00 21 0 Calma 9 Norte 0 -- -- 47
2020-09-13 07:00:00 21.4 5 Norte 9 Nordeste 0 -- -- 48
2020-09-13 06:00:00 21.4 3 Norte 7 Norte 0 -- -- 46
2020-09-13 05:00:00 22 3 Norte 8 Norte 0 -- -- 44
2020-09-13 04:00:00 22.3 3 Norte 8 Este 0 -- -- 46
2020-09-13 03:00:00 23 4 Nordeste 8 Norte 0 -- -- 43
2020-09-13 02:00:00 23.2 6 Nordeste 9 Nordeste 0 -- -- 45
2020-09-13 01:00:00 23.9 2 Sur 12 Sudoeste 0 -- -- 43
2020-09-13 00:00:00 24.4 3 Sudoeste 8 Sudoeste 0 -- -- 40
2020-09-12 23:00:00 26 6 Sur 13 Sudoeste 0 -- -- 39
2020-09-12 22:00:00 27.7 8 Sur 15 Sudoeste 0 -- -- 36
2020-09-12 21:00:00 29.5 11 Sudoeste 25 Sudoeste 0 -- -- 33
2020-09-12 20:00:00 32.5 14 Sur 22 Sudoeste 0 -- -- 29
2020-09-12 19:00:00 34.9 16 Sudoeste 22 Sudoeste 0 -- -- 26
2020-09-12 18:00:00 35.9 12 Sudoeste 26 Sudoeste 0 -- -- 25
2020-09-12 17:00:00 37.7 13 Sur 23 Sudoeste 0 -- -- 23
2020-09-12 16:00:00 37.6 12 Sur 23 Sudoeste 0 -- -- 23
2020-09-12 15:00:00 36.4 14 Este 28 Este 0 -- -- 25
2020-09-12 14:00:00 34.9 11 Sudoeste 16 Oeste 0 -- -- 27
2020-09-12 13:00:00 32.9 5 Sudeste 18 Este 0 -- -- 29
2020-09-12 12:00:00 30.1 13 Nordeste 29 Nordeste 0 -- -- 33
2020-09-12 11:00:00 27.5 15 Nordeste 22 Norte 0 -- -- 36
2020-09-12 10:00:00 24.8 12 Norte 21 Norte 0 -- -- 40
2020-09-12 09:00:00 20.8 8 Norte 18 Norte 0 -- -- 47
2020-09-12 08:00:00 18.2 5 Norte 12 Norte 0 -- -- 50
2020-09-12 07:00:00 17.9 3 Norte 8 Norte 0 -- -- 48
2020-09-12 06:00:00 18.7 5 Norte 8 Norte 0 -- -- 46
2020-09-12 05:00:00 19 5 Norte 9 Norte 0 -- -- 46
2020-09-12 04:00:00 18.5 0 Calma 4 Este 0 -- -- 47
2020-09-12 03:00:00 19.3 2 Norte 4 Este 0 -- -- 43
2020-09-12 02:00:00 21.1 0 Calma 9 Sur 0 -- -- 40
2020-09-12 01:00:00 22.6 4 Sur 11 Sudoeste 0 -- -- 42
2020-09-12 00:00:00 23.6 6 Sudoeste 9 Sudoeste 0 -- -- 38
2020-09-11 23:00:00 25.6 6 Sudoeste 13 Sudoeste 0 -- -- 36
2020-09-11 22:00:00 26.5 2 Noroeste 8 Sudoeste 0 -- -- 33
2020-09-11 21:00:00 28.9 5 Sudoeste 21 Sur 0 -- -- 31
2020-09-11 20:00:00 32.5 12 Sur 19 Sudoeste 0 -- -- 28
2020-09-11 19:00:00 34.1 11 Sur 18 Sudoeste 0 -- -- 29
2020-09-11 18:00:00 35.4 11 Sudoeste 19 Oeste 0 -- -- 26
2020-09-11 17:00:00 35.3 8 Sudoeste 19 Sudoeste 0 -- -- 27
2020-09-11 16:00:00 33.8 6 Sur 17 Sur 0 -- -- 30
2020-09-11 15:00:00 32.7 9 Sudoeste 18 Sur 0 -- -- 31
2020-09-11 14:00:00 32.8 9 Este 16 Sudeste 0 -- -- 31
2020-09-11 13:00:00 30.4 5 Sudeste 13 Nordeste 0 -- -- 34
2020-09-11 12:00:00 27.4 6 Nordeste 16 Nordeste 0 -- -- 39
2020-09-11 11:00:00 26.8 5 Este 15 Sudeste 0 -- -- 41
2020-09-11 10:00:00 24.4 3 Este 4 Este 0 -- -- 46
2020-09-11 09:00:00 17.8 0 Calma 6 Norte 0 -- -- 54
2020-09-11 08:00:00 16.9 4 Norte 7 Norte 0 -- -- 54
2020-09-11 07:00:00 17.8 0 Calma 6 Nordeste 0 -- -- 53
2020-09-11 06:00:00 18.8 3 Sudoeste 6 Oeste 0 -- -- 53
2020-09-11 05:00:00 19.3 0 Calma 5 Oeste 0 -- -- 51
2020-09-11 04:00:00 19.8 2 Sudoeste 7 Norte 0 -- -- 48
2020-09-11 03:00:00 20.2 0 Calma 4 Sudeste 0 -- -- 45
2020-09-11 02:00:00 21.5 2 Sur 8 Sur 0 -- -- 44
2020-09-11 01:00:00 21.3 3 Sudoeste 15 Sudoeste 0 -- -- 43
2020-09-11 00:00:00 22.6 0 Calma 7 Norte 0 -- -- 36
2020-09-10 23:00:00 24.2 3 Nordeste 8 Norte 0 -- -- 34
2020-09-10 22:00:00 26.2 4 Norte 6 Sudeste 0 -- -- 32
2020-09-10 21:00:00 30 3 Sudoeste 13 Sudoeste 0 -- -- 30
2020-09-10 20:00:00 33 8 Sudoeste 14 Sudoeste 0 -- -- 27
2020-09-10 19:00:00 34.3 4 Este 14 Este 0 -- -- 26
2020-09-10 18:00:00 34.4 4 Nordeste 16 Norte 0 -- -- 25
2020-09-10 17:00:00 34.9 8 Este 21 Este 0 -- -- 25
2020-09-10 16:00:00 33.8 4 Norte 17 Nordeste 0 -- -- 27
2020-09-10 15:00:00 33.6 5 Sudeste 15 Sur 0 -- -- 31
2020-09-10 14:00:00 31.4 5 Sur 17 Oeste 0 -- -- 34
2020-09-10 13:00:00 29.7 4 Oeste 17 Oeste 0 -- -- 38
2020-09-10 12:00:00 27.8 5 Sudoeste 12 Oeste 0 -- -- 40
2020-09-10 11:00:00 26 6 Sur 10 Sudoeste 0 -- -- 43
2020-09-10 10:00:00 23.3 2 Sudoeste 5 Norte 0 -- -- 48
2020-09-10 09:00:00 17.7 3 Norte 6 Norte 0 -- -- 55
2020-09-10 08:00:00 16.7 3 Norte 8 Norte 0 -- -- 55
2020-09-10 07:00:00 17.3 3 Norte 6 Norte 0 -- -- 54
2020-09-10 06:00:00 18.2 3 Oeste 7 Sudoeste 0 -- -- 53
2020-09-10 05:00:00 18.6 5 Sudoeste 11 Sudoeste 0 -- -- 54
2020-09-10 04:00:00 19 3 Sudoeste 7 Oeste 0 -- -- 54
2020-09-10 03:00:00 21 4 Sur 14 Sur 0 -- -- 51
2020-09-10 02:00:00 21.9 6 Sur 12 Sur 0 -- -- 52
2020-09-10 01:00:00 21.4 6 Sudeste 11 Sur 0 -- -- 48
2020-09-10 00:00:00 21.9 0 Calma 6 Norte 0 -- -- 40
2020-09-09 23:00:00 23.7 5 Norte 7 Norte 0 -- -- 38
2020-09-09 22:00:00 25.9 3 Norte 5 Este 0 -- -- 35
2020-09-09 21:00:00 29.1 2 Este 10 Noroeste 0 -- -- 34
2020-09-09 20:00:00 31.7 0 Calma 13 Sudeste 0 -- -- 29
2020-09-09 19:00:00 32.9 6 Este 25 Sur 0 -- -- 29
2020-09-09 18:00:00 33.5 9 Sur 18 Sudoeste 0 -- -- 31
2020-09-09 17:00:00 33.2 7 Noroeste 18 Oeste 0 -- -- 34
2020-09-09 16:00:00 32.5 5 Sudoeste 13 Sudoeste 0 -- -- 37
2020-09-09 15:00:00 31.2 5 Sudeste 15 Sur 0 -- -- 40
2020-09-09 14:00:00 30.5 5 Sur 13 Sur 0 -- -- 42
2020-09-09 13:00:00 28.7 7 Este 14 Este 0 -- -- 46
2020-09-09 12:00:00 26.7 5 Norte 20 Sudeste 0 -- -- 51
2020-09-09 11:00:00 24.9 6 Nordeste 16 Nordeste 0 -- -- 55
2020-09-09 10:00:00 22.6 2 Norte 4 Norte 0 -- -- 64
2020-09-09 09:00:00 18.5 0 Calma 5 Nordeste 0 -- -- 78
2020-09-09 08:00:00 18.4 4 Nordeste 12 Nordeste 0 -- -- 79
2020-09-09 07:00:00 17.9 3 Norte 6 Nordeste 0 -- -- 77
2020-09-09 06:00:00 18.5 5 Sudoeste 9 Sudoeste 0 -- -- 79
2020-09-09 05:00:00 19.3 4 Sudoeste 10 Sur 0 -- -- 77
2020-09-09 04:00:00 20.3 8 Sudoeste 15 Sudoeste 0 -- -- 73
2020-09-09 03:00:00 21.3 10 Sur 25 Sur 0 -- -- 70
2020-09-09 02:00:00 21.6 15 Sur 23 Sur 0 -- -- 66
2020-09-09 01:00:00 22 12 Sudoeste 21 Sudoeste 0 -- -- 60
2020-09-09 00:00:00 22.8 11 Sudoeste 23 Sudeste 0 -- -- 56
2020-09-08 23:00:00 23.7 14 Sur 21 Sur 0 -- -- 54
2020-09-08 22:00:00 24.7 10 Sur 33 Sur 0 -- -- 49
2020-09-08 21:00:00 26.3 21 Sur 35 Sur 0 -- -- 46
2020-09-08 20:00:00 28.7 24 Sur 35 Sur 0 -- -- 43
2020-09-08 19:00:00 31.1 19 Sur 33 Sudoeste 0 -- -- 40
2020-09-08 18:00:00 32.3 21 Sur 33 Sur 0 -- -- 39
2020-09-08 17:00:00 33.1 22 Sur 36 Sudoeste 0 -- -- 37
2020-09-08 16:00:00 33 19 Sur 35 Sur 0 -- -- 37
2020-09-08 15:00:00 32.4 10 Sur 24 Sur 0 -- -- 36
2020-09-08 14:00:00 32.1 11 Sur 28 Sur 0 -- -- 39
2020-09-08 13:00:00 31.1 17 Sur 33 Sur 0 -- -- 41
2020-09-08 12:00:00 29.3 12 Sur 29 Sudeste 0 -- -- 46
2020-09-08 11:00:00 27.5 13 Este 21 Este 0 -- -- 52
2020-09-08 10:00:00 25.6 9 Sudeste 16 Sudeste 0 -- -- 60
2020-09-08 09:00:00 21.7 0 Calma 9 Sur 0 -- -- 74
2020-09-08 08:00:00 20.3 8 Sur 14 Sur 0 -- -- 76
2020-09-08 07:00:00 20.7 5 Sudoeste 9 Sudoeste 0 -- -- 69
2020-09-08 06:00:00 22 4 Sur 9 Sur 0 -- -- 70
2020-09-08 05:00:00 22.9 5 Sur 22 Sur 0 -- -- 69
2020-09-08 04:00:00 23.3 14 Sur 23 Sur 0 -- -- 67
2020-09-08 03:00:00 22.8 8 Sudeste 15 Sudeste 0 -- -- 64
2020-09-08 02:00:00 22.8 4 Sudeste 10 Sudeste 0 -- -- 43
2020-09-08 01:00:00 24.6 0 Calma 11 Este 0 -- -- 41
2020-09-08 00:00:00 27.1 5 Sudeste 19 Este 0 -- -- 39
2020-09-07 23:00:00 29.7 6 Este 17 Noroeste 0 -- -- 33
2020-09-07 22:00:00 29.3 5 Norte 12 Norte 0 -- -- 35
2020-09-07 21:00:00 31.9 9 Noroeste 11 Oeste 0 -- -- 30
2020-09-07 20:00:00 35 8 Sudoeste 21 Oeste 0 -- -- 29
2020-09-07 19:00:00 36.4 10 Oeste 22 Sur 0 -- -- 27
2020-09-07 18:00:00 37.1 14 Sudoeste 23 Sudoeste 0 -- -- 29
2020-09-07 17:00:00 35.9 10 Sur 22 Sudoeste 0 -- -- 30
2020-09-07 16:00:00 35.4 12 Sur 18 Sur 0 -- -- 33
2020-09-07 15:00:00 34.3 8 Sudoeste 18 Sudoeste 0 -- -- 35
2020-09-07 14:00:00 32.7 9 Sur 19 Sur 0 -- -- 39
2020-09-07 13:00:00 30.6 6 Sudoeste 13 Sudoeste 0 -- -- 44
2020-09-07 12:00:00 28.6 3 Sudoeste 12 Sudoeste 0 -- -- 50
2020-09-07 11:00:00 26.6 3 Sur 7 Sur 0 -- -- 56
2020-09-07 10:00:00 23.7 4 Sudoeste 6 Sudoeste 0 -- -- 65
2020-09-07 09:00:00 18.6 0 Calma 3 Este 0 -- -- 73
2020-09-07 08:00:00 18.2 0 Calma 6 Norte 0 -- -- 73
2020-09-07 07:00:00 18.7 0 Calma 4 Norte 0 -- -- 73
2020-09-07 06:00:00 19.7 0 Calma 4 Sudeste 0 -- -- 71
2020-09-07 05:00:00 20.7 3 Sudoeste 12 Sudoeste 0 -- -- 72
2020-09-07 04:00:00 22.2 9 Sur 22 Sur 0 -- -- 67
2020-09-07 03:00:00 23.3 13 Sur 21 Sur 0 -- -- 64
2020-09-07 02:00:00 24 13 Sur 19 Sur 0 -- -- 60
2020-09-07 01:00:00 24.9 11 Sur 20 Sur 0 -- -- 57
2020-09-07 00:00:00 25.1 8 Sur 16 Sudoeste 0 -- -- 56
2020-09-06 23:00:00 26.5 14 Sudoeste 25 Sudoeste 0 -- -- 52
2020-09-06 22:00:00 28.5 5 Sudoeste 27 Sur 0 -- -- 43
2020-09-06 21:00:00 31.1 12 Sur 17 Sur 0 -- -- 36
2020-09-06 20:00:00 33.7 11 Sur 20 Sudoeste 0 -- -- 32
2020-09-06 19:00:00 35.3 11 Sur 21 Sur 0 -- -- 31
2020-09-06 18:00:00 36 11 Sudoeste 22 Sudoeste 0 -- -- 31
2020-09-06 17:00:00 36.1 8 Sudoeste 24 Sudoeste 0 -- -- 32
2020-09-06 16:00:00 35 10 Sudoeste 23 Sur 0 -- -- 35
2020-09-06 15:00:00 34 9 Oeste 24 Sudoeste 0 -- -- 36
2020-09-06 14:00:00 33.1 9 Sudoeste 17 Sudoeste 0 -- -- 38
2020-09-06 13:00:00 31.3 7 Sudoeste 15 Sudeste 0 -- -- 40
2020-09-06 12:00:00 29.4 5 Este 13 Este 0 -- -- 44
2020-09-06 11:00:00 26.8 5 Norte 13 Norte 0 -- -- 53
2020-09-06 10:00:00 24.6 2 Este 5 Este 0 -- -- 60
2020-09-06 09:00:00 19.6 3 Norte 6 Norte 0 -- -- 75
2020-09-06 08:00:00 18.4 0 Calma 5 Este 0 -- -- 75
2020-09-06 07:00:00 19.4 3 Norte 9 Sur 0 -- -- 73
2020-09-06 06:00:00 20.7 6 Sudoeste 16 Sudoeste 0 -- -- 73
2020-09-06 05:00:00 21.5 7 Sur 13 Sur 0 -- -- 71
2020-09-06 04:00:00 22.1 12 Sur 21 Sudoeste 0 -- -- 70
2020-09-06 03:00:00 22.8 13 Sur 31 Sudoeste 0 -- -- 69
2020-09-06 02:00:00 23.5 21 Sur 32 Sur 0 -- -- 63
2020-09-06 01:00:00 23.9 12 Sur 26 Sur 0 -- -- 58
2020-09-06 00:00:00 24.9 14 Sur 24 Sur 0 -- -- 53
2020-09-05 23:00:00 26.4 12 Sur 22 Sur 0 -- -- 43
2020-09-05 22:00:00 28.1 3 Sur 15 Sur 0 -- -- 36
2020-09-05 21:00:00 30.9 11 Sur 16 Sur 0 -- -- 35
2020-09-05 20:00:00 33.5 13 Sudoeste 19 Sur 0 -- -- 33
2020-09-05 19:00:00 35 7 Sudoeste 21 Sur 0 -- -- 31
2020-09-05 18:00:00 35.6 6 Oeste 19 Sudoeste 0 -- -- 31
2020-09-05 17:00:00 35.3 8 Sur 22 Sur 0 -- -- 32
2020-09-05 16:00:00 34.9 5 Sudeste 18 Sudoeste 0 -- -- 34
2020-09-05 15:00:00 34 9 Sur 18 Sur 0 -- -- 35
2020-09-05 14:00:00 32.5 6 Sur 13 Sudeste 0 -- -- 37
2020-09-05 13:00:00 30.8 6 Sur 16 Este 0 -- -- 41
2020-09-05 12:00:00 28.8 6 Este 16 Este 0 -- -- 45
2020-09-05 11:00:00 26.5 8 Este 16 Este 0 -- -- 51
2020-09-05 10:00:00 24.2 7 Este 13 Este 0 -- -- 57
2020-09-05 09:00:00 19.9 5 Sudeste 11 Este 0 -- -- 74
2020-09-05 08:00:00 18.4 4 Este 8 Este 0 -- -- 80
2020-09-05 07:00:00 18.7 5 Este 9 Este 0 -- -- 76
2020-09-05 06:00:00 19.5 3 Este 12 Sur 0 -- -- 75
2020-09-05 05:00:00 19.5 8 Sur 10 Sur 0 -- -- 73
2020-09-05 04:00:00 19.6 6 Sudoeste 8 Sur 0 -- -- 66
2020-09-05 03:00:00 20.6 5 Sudoeste 9 Sur 0 -- -- 64
2020-09-05 02:00:00 20.8 6 Sudoeste 12 Sudoeste 0 -- -- 63
2020-09-05 01:00:00 22.1 5 Sudoeste 11 Sur 0 -- -- 57
2020-09-05 00:00:00 23.4 8 Sudoeste 14 Sudoeste 0 -- -- 53
2020-09-04 23:00:00 25 10 Sur 21 Sur 0 -- -- 49
2020-09-04 22:00:00 26.2 8 Sur 28 Sur 0 -- -- 44
2020-09-04 21:00:00 28.2 16 Sur 29 Sur 0 -- -- 39
2020-09-04 20:00:00 31.2 18 Sur 29 Sudeste 0 -- -- 33
2020-09-04 19:00:00 33.6 21 Sudoeste 28 Sudoeste 0 -- -- 29
2020-09-04 18:00:00 35.6 16 Sudoeste 25 Sur 0 -- -- 24
2020-09-04 17:00:00 35.8 10 Sur 22 Sudoeste 0 -- -- 23
2020-09-04 16:00:00 35.2 10 Sur 22 Oeste 0 -- -- 25
2020-09-04 15:00:00 33.7 5 Sur 25 Sudoeste 0 -- -- 30
2020-09-04 14:00:00 32.7 9 Sur 15 Sudoeste 0 -- -- 33
2020-09-04 13:00:00 31.1 5 Sudoeste 11 Sudoeste 0 -- -- 36
2020-09-04 12:00:00 28.8 6 Sur 11 Sur 0 -- -- 43
2020-09-04 11:00:00 26.4 4 Oeste 10 Oeste 0 -- -- 47
2020-09-04 10:00:00 23.4 4 Sudoeste 8 Sur 0 -- -- 54
2020-09-04 09:00:00 17.6 2 Norte 5 Este 0 -- -- 63
2020-09-04 08:00:00 16.3 3 Norte 6 Este 0 -- -- 63
2020-09-04 07:00:00 16.8 2 Este 5 Nordeste 0 -- -- 59
2020-09-04 06:00:00 17.7 3 Norte 8 Norte 0 -- -- 59
2020-09-04 05:00:00 17.9 3 Norte 5 Norte 0 -- -- 58
2020-09-04 04:00:00 18.9 3 Norte 6 Norte 0 -- -- 58
2020-09-04 03:00:00 19.8 0 Calma 5 Nordeste 0 -- -- 55
2020-09-04 02:00:00 21.1 4 Norte 6 Norte 0 -- -- 54
2020-09-04 01:00:00 22.2 5 Sudoeste 10 Sur 0 -- -- 54
2020-09-04 00:00:00 23.8 4 Sudoeste 15 Sur 0 -- -- 51
2020-09-03 23:00:00 24.9 6 Sur 15 Sudoeste 0 -- -- 51
2020-09-03 22:00:00 26.4 11 Sudoeste 24 Sur 0 -- -- 45
2020-09-03 21:00:00 28.6 13 Sur 28 Sur 0 -- -- 40
2020-09-03 20:00:00 31 21 Sur 30 Sur 0 -- -- 35
2020-09-03 19:00:00 33.9 22 Sur 30 Sudoeste 0 -- -- 32
2020-09-03 18:00:00 35.5 18 Sur 29 Sur 0 -- -- 31
2020-09-03 17:00:00 35.7 13 Sur 22 Sur 0 -- -- 28
2020-09-03 16:00:00 34.8 7 Sudeste 16 Nordeste 0 -- -- 29
2020-09-03 15:00:00 33.7 7 Oeste 23 Sur 0 -- -- 31
2020-09-03 14:00:00 32.9 9 Sudeste 17 Sudeste 0 -- -- 32
2020-09-03 13:00:00 30.5 7 Este 17 Este 0 -- -- 36
2020-09-03 12:00:00 28.4 8 Este 22 Nordeste 0 -- -- 40
2020-09-03 11:00:00 25.9 12 Nordeste 19 Nordeste 0 -- -- 44
2020-09-03 10:00:00 23.6 3 Sudeste 6 Sudeste 0 -- -- 50
2020-09-03 09:00:00 17.5 0 Calma 5 Norte 0 -- -- 64
2020-09-03 08:00:00 16.8 3 Nordeste 8 Norte 0 -- -- 66
2020-09-03 07:00:00 16.9 4 Norte 9 Norte 0 -- -- 66
2020-09-03 06:00:00 17.8 0 Calma 8 Este 0 -- -- 60
2020-09-03 05:00:00 19.8 3 Este 14 Sur 0 -- -- 59
2020-09-03 04:00:00 21.7 9 Sur 15 Sur 0 -- -- 58
2020-09-03 03:00:00 20.4 7 Sudoeste 13 Sudoeste 0 -- -- 56
2020-09-03 02:00:00 21.7 9 Sudoeste 16 Sur 0 -- -- 53
2020-09-03 01:00:00 22.1 5 Sudoeste 11 Sur 0 -- -- 49
2020-09-03 00:00:00 23.4 7 Sudoeste 19 Sur 0 -- -- 47
2020-09-02 23:00:00 24.9 7 Sur 15 Sur 0 -- -- 42
2020-09-02 22:00:00 26.4 4 Sudoeste 26 Sur 0 -- -- 39
2020-09-02 21:00:00 28.8 13 Sur 27 Sur 0 -- -- 36
2020-09-02 20:00:00 32.2 8 Sur 14 Sudoeste 0 -- -- 26
2020-09-02 19:00:00 33.9 8 Sur 18 Oeste 0 -- -- 24
2020-09-02 18:00:00 34.3 6 Oeste 18 Sudoeste 0 -- -- 24
2020-09-02 17:00:00 34.1 9 Sur 20 Sudoeste 0 -- -- 26
2020-09-02 16:00:00 32.7 5 Norte 20 Sudoeste 0 -- -- 27
2020-09-02 15:00:00 31.9 10 Oeste 22 Sudoeste 0 -- -- 29
2020-09-02 14:00:00 30.9 9 Sur 16 Sudoeste 0 -- -- 30
2020-09-02 13:00:00 28.6 4 Este 13 Sur 0 -- -- 38
2020-09-02 12:00:00 26.2 5 Norte 14 Norte 0 -- -- 42
2020-09-02 11:00:00 23.8 6 Norte 11 Nordeste 0 -- -- 50
2020-09-02 10:00:00 22 6 Nordeste 10 Nordeste 0 -- -- 56
2020-09-02 09:00:00 16.7 2 Norte 9 Nordeste 0 -- -- 69
2020-09-02 08:00:00 14.8 3 Norte 7 Nordeste 0 -- -- 66
2020-09-02 07:00:00 14.6 2 Nordeste 6 Norte 0 -- -- 67
2020-09-02 06:00:00 15.5 2 Norte 6 Este 0 -- -- 66
2020-09-02 05:00:00 16.2 3 Nordeste 5 Este 0 -- -- 63
2020-09-02 04:00:00 17.6 2 Noroeste 5 Noroeste 0 -- -- 64
2020-09-02 03:00:00 19.4 4 Sudoeste 15 Sur 0 -- -- 60
2020-09-02 02:00:00 20.3 10 Sur 16 Sur 0 -- -- 57
2020-09-02 01:00:00 21 8 Sur 17 Sur 0 -- -- 52
2020-09-02 00:00:00 22.1 8 Sur 15 Sudoeste 0 -- -- 46
2020-09-01 23:00:00 23 8 Sur 11 Sudoeste 0 -- -- 38
2020-09-01 22:00:00 23.7 2 Este 5 Sur 0 -- -- 37
2020-09-01 21:00:00 27.6 5 Sur 18 Sudoeste 0 -- -- 32
2020-09-01 20:00:00 30.2 14 Sur 23 Sur 0 -- -- 30
2020-09-01 19:00:00 31 12 Sur 27 Sudoeste 0 -- -- 31
2020-09-01 18:00:00 32.1 11 Sur 21 Sur 0 -- -- 30
2020-09-01 17:00:00 31.3 12 Sur 22 Sur 0 -- -- 30
2020-09-01 16:00:00 30.9 10 Sur 20 Sur 0 -- -- 34
2020-09-01 15:00:00 29.5 8 Sur 19 Sur 0 -- -- 38
2020-09-01 14:00:00 27.5 8 Sudoeste 17 Sudoeste 0 -- -- 43
2020-09-01 13:00:00 26 4 Oeste 15 Sur 0 -- -- 47
2020-09-01 12:00:00 24.3 8 Sur 17 Sur 0 -- -- 50
2020-09-01 11:00:00 22.7 5 Sudoeste 12 Sudoeste 0 -- -- 56
2020-09-01 10:00:00 19.9 5 Sudoeste 8 Sudoeste 0 -- -- 60
2020-09-01 09:00:00 16.3 0 Calma 6 Norte 0 -- -- 61
2020-09-01 08:00:00 15.4 3 Norte 6 Norte 0 -- -- 66
2020-09-01 07:00:00 15.4 0 Calma 6 Este 0 -- -- 66
2020-09-01 06:00:00 16.3 0 Calma 6 Norte 0 -- -- 65
2020-09-01 05:00:00 16.6 2 Norte 6 Este 0 -- -- 65
2020-09-01 04:00:00 17.6 0 Calma 5 Este 0 -- -- 63
2020-09-01 03:00:00 19.2 4 Sur 5 Sur 0 -- -- 57
2020-09-01 02:00:00 21 4 Sudoeste 13 Sur 0 -- -- 58
2020-09-01 01:00:00 22.2 10 Sur 15 Sur 0 -- -- 56
2020-09-01 00:00:00 23.1 6 Sudoeste 17 Sudeste 0 -- -- 48
2020-08-31 23:00:00 24.3 8 Sur 16 Sudeste 0 -- -- 41
2020-08-31 22:00:00 25.4 11 Sur 18 Sur 0 -- -- 39
2020-08-31 21:00:00 27.5 13 Sur 27 Sur 0 -- -- 35
2020-08-31 20:00:00 30.7 17 Sur 24 Sur 0 -- -- 32
2020-08-31 19:00:00 32.7 20 Sur 27 Sudoeste 0 -- -- 30
2020-08-31 18:00:00 33.5 6 Sudoeste 24 Sudoeste 0 -- -- 28
2020-08-31 17:00:00 33.6 14 Sudoeste 24 Sudoeste 0 -- -- 29
2020-08-31 16:00:00 32.1 6 Noroeste 21 Sudeste 0 -- -- 31
2020-08-31 15:00:00 31.5 6 Noroeste 15 Sudoeste 0 -- -- 31
2020-08-31 14:00:00 29.8 6 Nordeste 15 Nordeste 0 -- -- 32
2020-08-31 13:00:00 28.7 5 Norte 19 Norte 0 -- -- 32
2020-08-31 12:00:00 26.4 8 Norte 16 Noroeste 0 -- -- 32
2020-08-31 11:00:00 24.4 7 Norte 15 Norte 0 -- -- 32
2020-08-31 10:00:00 21.9 8 Norte 14 Norte 0 -- -- 32
2020-08-31 09:00:00 16.8 5 Norte 13 Norte 0 -- -- 39
2020-08-31 08:00:00 14.1 0 Calma 5 Este 0 -- -- 57
2020-08-31 07:00:00 15.3 2 Norte 6 Nordeste 0 -- -- 57
2020-08-31 06:00:00 15.8 3 Norte 8 Norte 0 -- -- 51
2020-08-31 05:00:00 16.1 5 Norte 10 Norte 0 -- -- 44
2020-08-31 04:00:00 16.3 7 Norte 10 Norte 0 -- -- 36
2020-08-31 03:00:00 17.9 0 Calma 12 Nordeste 0 -- -- 35
2020-08-31 02:00:00 19.9 6 Norte 10 Norte 0 -- -- 29
2020-08-31 01:00:00 23.6 5 Este 22 Este 0 -- -- 27
2020-08-31 00:00:00 23.8 12 Nordeste 19 Nordeste 0 -- -- 25
2020-08-30 23:00:00 22.8 8 Nordeste 12 Nordeste 0 -- -- 26
2020-08-30 22:00:00 24.5 8 Norte 11 Nordeste 0 -- -- 25
2020-08-30 21:00:00 27.7 5 Nordeste 14 Nordeste 0 -- -- 23
2020-08-30 20:00:00 30.1 5 Este 14 Nordeste 0 -- -- 21
2020-08-30 19:00:00 31.5 9 Sur 15 Sudeste 0 -- -- 20
2020-08-30 18:00:00 31.9 5 Sudeste 21 Sur 0 -- -- 20
2020-08-30 17:00:00 31.5 9 Sur 20 Norte 0 -- -- 20
2020-08-30 16:00:00 30.8 10 Norte 21 Norte 0 -- -- 21
2020-08-30 15:00:00 30.4 7 Este 34 Norte 0 -- -- 22
2020-08-30 14:00:00 29.1 11 Norte 27 Nordeste 0 -- -- 23
2020-08-30 13:00:00 28.3 13 Nordeste 31 Nordeste 0 -- -- 26
2020-08-30 12:00:00 26 16 Nordeste 36 Nordeste 0 -- -- 31
2020-08-30 11:00:00 22.7 23 Nordeste 33 Nordeste 0 -- -- 36
2020-08-30 10:00:00 20.2 18 Norte 31 Nordeste 0 -- -- 38
2020-08-30 09:00:00 19.6 17 Nordeste 27 Nordeste 0 -- -- 39
2020-08-30 08:00:00 19.2 17 Norte 24 Norte 0 -- -- 38
2020-08-30 07:00:00 19.3 15 Nordeste 28 Nordeste 0 -- -- 38
2020-08-30 06:00:00 19.4 18 Nordeste 27 Nordeste 0 -- -- 36
2020-08-30 05:00:00 20.2 19 Nordeste 29 Nordeste 0 -- -- 34
2020-08-30 04:00:00 19.9 13 Nordeste 19 Nordeste 0 -- -- 33
2020-08-30 03:00:00 18.4 9 Norte 14 Norte 0 -- -- 37
2020-08-30 02:00:00 18.5 4 Norte 8 Nordeste 0 -- -- 36
2020-08-30 01:00:00 20.1 2 Nordeste 20 Nordeste 0 -- -- 33
2020-08-30 00:00:00 21.6 6 Nordeste 12 Noroeste 0 -- -- 31
2020-08-29 23:00:00 23.2 8 Noroeste 23 Noroeste 0 -- -- 28
2020-08-29 22:00:00 25 15 Noroeste 23 Noroeste 0 -- -- 26
2020-08-29 21:00:00 26.7 17 Noroeste 33 Noroeste 0 -- -- 25
2020-08-29 20:00:00 29.1 18 Norte 35 Noroeste 0 -- -- 23
2020-08-29 19:00:00 30.5 19 Norte 41 Oeste 0 -- -- 23
2020-08-29 18:00:00 31.1 12 Oeste 35 Noroeste 0 -- -- 24
2020-08-29 17:00:00 30.2 10 Norte 48 Sudoeste 0 -- -- 23
2020-08-29 16:00:00 28.8 12 Sudoeste 35 Noroeste 0 -- -- 27
2020-08-29 15:00:00 27.8 11 Oeste 26 Oeste 0 -- -- 27
2020-08-29 14:00:00 26.6 13 Oeste 25 Sudoeste 0 -- -- 29
2020-08-29 13:00:00 24.9 11 Oeste 25 Noroeste 0 -- -- 34
2020-08-29 12:00:00 23.5 10 Sudoeste 21 Oeste 0 -- -- 40
2020-08-29 11:00:00 21.8 8 Oeste 17 Oeste 0 -- -- 45
2020-08-29 10:00:00 20.1 7 Oeste 19 Oeste 0 -- -- 50
2020-08-29 09:00:00 16.7 0 Calma 9 Sudoeste 0 -- -- 59
2020-08-29 08:00:00 16 2 Sur 10 Sudoeste 0 -- -- 56
2020-08-29 07:00:00 17.3 3 Sur 7 Sur 0 -- -- 51
2020-08-29 06:00:00 18.2 3 Sudoeste 11 Sudoeste 0 -- -- 49
2020-08-29 05:00:00 18.4 4 Sudoeste 12 Noroeste 0 -- -- 49
2020-08-29 04:00:00 19.1 0 Calma 11 Sudoeste 0 -- -- 46
2020-08-29 03:00:00 20.1 4 Oeste 18 Oeste 0 -- -- 40
2020-08-29 02:00:00 22.8 11 Oeste 22 Oeste 0 -- -- 32
2020-08-29 01:00:00 22.2 2 Oeste 6 Oeste 0 -- -- 30
2020-08-29 00:00:00 25.5 5 Oeste 20 Oeste 0 -- -- 23
2020-08-28 23:00:00 27.1 12 Oeste 26 Noroeste 0 -- -- 22
2020-08-28 22:00:00 29.9 18 Oeste 44 Oeste 0 -- -- 26
2020-08-28 21:00:00 31.5 23 Sudoeste 40 Sudoeste 0 -- -- 42
2020-08-28 20:00:00 34.3 17 Oeste 37 Oeste 0 -- -- 34
2020-08-28 19:00:00 35.5 15 Oeste 46 Oeste 0 -- -- 30
2020-08-28 18:00:00 36.2 20 Oeste 44 Sudoeste 0 -- -- 30
2020-08-28 17:00:00 35.2 20 Oeste 36 Oeste 0 -- -- 31
2020-08-28 16:00:00 36 16 Oeste 35 Oeste 0 -- -- 32
2020-08-28 15:00:00 35 14 Sudoeste 34 Oeste 0 -- -- 35
2020-08-28 14:00:00 33.7 18 Sudoeste 32 Sudoeste 0 -- -- 39
2020-08-28 13:00:00 31.9 17 Sudoeste 30 Sudoeste 0 -- -- 42
2020-08-28 12:00:00 30.1 17 Sudoeste 28 Sudoeste 0 -- -- 46
2020-08-28 11:00:00 28 11 Sur 18 Sudoeste 0 -- -- 51
2020-08-28 10:00:00 25 9 Sur 14 Sudoeste 0 -- -- 55
2020-08-28 09:00:00 20.5 5 Sur 9 Sudoeste 0 -- -- 59
2020-08-28 08:00:00 19.5 0 Calma 4 Oeste 0 -- -- 57
2020-08-28 07:00:00 20.7 2 Noroeste 3 Noroeste 0 -- -- 55
2020-08-28 06:00:00 21.3 0 Calma 3 Este 0 -- -- 53
2020-08-28 05:00:00 22.4 0 Calma 4 Sudeste 0 -- -- 53
2020-08-28 04:00:00 23.2 2 Este 4 Sur 0 -- -- 48
2020-08-28 03:00:00 24.9 4 Este 10 Sudeste 0 -- -- 47
2020-08-28 02:00:00 26.7 5 Sur 24 Sudoeste 0 -- -- 46
2020-08-28 01:00:00 27.7 8 Sudoeste 31 Sudoeste 0 -- -- 45
2020-08-28 00:00:00 28.9 9 Sur 31 Sudoeste 0 -- -- 42
2020-08-27 23:00:00 30.5 20 Sudoeste 29 Sudoeste 0 -- -- 38
2020-08-27 22:00:00 32.4 14 Sudoeste 25 Sudoeste 0 -- -- 30
2020-08-27 21:00:00 34.8 19 Sudoeste 29 Sudoeste 0 -- -- 27
2020-08-27 20:00:00 37.4 18 Sudoeste 33 Sudoeste 0 -- -- 22
2020-08-27 19:00:00 39.4 20 Sudoeste 38 Sudoeste 0 -- -- 19
2020-08-27 18:00:00 40.5 19 Sudoeste 37 Sudoeste 0 -- -- 19
2020-08-27 17:00:00 41 21 Sudoeste 37 Sudoeste 0 -- -- 16
2020-08-27 16:00:00 40.5 13 Sudoeste 28 Sudoeste 0 -- -- 21
2020-08-27 15:00:00 39.8 12 Sudoeste 22 Sudoeste 0 -- -- 22
2020-08-27 14:00:00 38.1 9 Sudoeste 17 Sur 0 -- -- 25
2020-08-27 13:00:00 35.8 9 Sudoeste 18 Sudoeste 0 -- -- 30
2020-08-27 12:00:00 33.4 10 Sudoeste 15 Sudoeste 0 -- -- 33
2020-08-27 11:00:00 30.8 5 Sudoeste 9 Sudoeste 0 -- -- 39
2020-08-27 10:00:00 28.1 0 Calma 9 Norte 0 -- -- 42
2020-08-27 09:00:00 22 3 Nordeste 6 Nordeste 0 -- -- 53
2020-08-27 08:00:00 19.9 3 Norte 4 Norte 0 -- -- 53
2020-08-27 07:00:00 20.2 2 Nordeste 8 Norte 0 -- -- 52
2020-08-27 06:00:00 20.9 2 Norte 5 Norte 0 -- -- 50
2020-08-27 05:00:00 22 3 Norte 6 Norte 0 -- -- 48
2020-08-27 04:00:00 22.9 2 Norte 5 Norte 0 -- -- 45
2020-08-27 03:00:00 24.2 0 Calma 5 Norte 0 -- -- 44
2020-08-27 02:00:00 25.6 2 Este 5 Sudeste 0 -- -- 43
2020-08-27 01:00:00 26.6 3 Este 5 Sudeste 0 -- -- 42
2020-08-27 00:00:00 28.6 0 Calma 9 Sur 0 -- -- 39
2020-08-26 23:00:00 29.9 0 Calma 17 Sur 0 -- -- 33
2020-08-26 22:00:00 31.6 3 Sudeste 5 Sudoeste 0 -- -- 29
2020-08-26 21:00:00 35.4 3 Sudoeste 11 Sudoeste 0 -- -- 27
2020-08-26 20:00:00 38 8 Sudoeste 22 Sudoeste 0 -- -- 23
2020-08-26 19:00:00 40.6 10 Sudoeste 22 Oeste 0 -- -- 20
2020-08-26 18:00:00 40.6 9 Oeste 23 Oeste 0 -- -- 23
2020-08-26 17:00:00 40.6 10 Sudoeste 20 Sudoeste 0 -- -- 24
2020-08-26 16:00:00 39.7 8 Este 17 Noroeste 0 -- -- 26
2020-08-26 15:00:00 38.4 9 Sudoeste 18 Sudoeste 0 -- -- 28
2020-08-26 14:00:00 37 6 Sudoeste 14 Sur 0 -- -- 34
2020-08-26 13:00:00 34.7 5 Sudoeste 13 Sudeste 0 -- -- 37
2020-08-26 12:00:00 32 4 Noroeste 13 Noroeste 0 -- -- 43
2020-08-26 11:00:00 30.1 8 Norte 14 Sudeste 0 -- -- 49
2020-08-26 10:00:00 27.9 5 Norte 10 Norte 0 -- -- 56
2020-08-26 09:00:00 22.2 0 Calma 6 Norte 0 -- -- 63
2020-08-26 08:00:00 21.2 3 Norte 8 Nordeste 0 -- -- 68
2020-08-26 07:00:00 21.6 5 Nordeste 6 Nordeste 0 -- -- 67
2020-08-26 06:00:00 22.7 0 Calma 9 Este 0 -- -- 62
2020-08-26 05:00:00 23.5 5 Sudeste 6 Sudeste 0 -- -- 65
2020-08-26 04:00:00 25.1 4 Sur 11 Sur 0 -- -- 62
2020-08-26 03:00:00 26.2 9 Sur 15 Sur 0 -- -- 59
2020-08-26 02:00:00 26.8 12 Sur 15 Sur 0 -- -- 55
2020-08-26 01:00:00 27.5 6 Sur 17 Sur 0 -- -- 45
2020-08-26 00:00:00 27.6 8 Sur 12 Sur 0 -- -- 41